Time;durP1;ratioP1;P1;durP2;ratioP2;P2;SDS_P1;SDS_P2;PMS_P1;PMS_P2;Temp;Humidity;BMP_temperature;BMP_pressure;BME280_temperature;BME280_humidity;BME280_pressure;Samples;Min_cycle;Max_cycle;Signal;HPM_P1;HPM_P2
2021/12/01 00:00:19;;;;;;;1.77;0.40;;;11.20;82.90;;;;;;5114744;28;20369;-69
2021/12/01 00:02:46;;;;;;;1.15;0.35;;;11.20;82.60;;;;;;5114759;27;20559;-69
2021/12/01 00:05:12;;;;;;;3.42;0.32;;;11.20;82.80;;;;;;5110214;28;20423;-69
2021/12/01 00:07:38;;;;;;;2.47;0.50;;;11.20;83.10;;;;;;5111923;28;20073;-69
2021/12/01 00:10:09;;;;;;;2.42;0.30;;;11.20;83.40;;;;;;5110682;28;20016;-69
2021/12/01 00:12:34;;;;;;;1.17;0.30;;;11.20;83.30;;;;;;5110091;28;20036;-69
2021/12/01 00:15:00;;;;;;;2.05;0.30;;;11.20;83.50;;;;;;5112795;28;20372;-69
2021/12/01 00:17:26;;;;;;;0.30;0.20;;;11.20;83.30;;;;;;5110474;28;20040;-69
2021/12/01 00:19:53;;;;;;;2.22;0.38;;;11.20;83.30;;;;;;5096960;28;20515;-69
2021/12/01 00:22:19;;;;;;;2.38;0.40;;;11.20;83.60;;;;;;5108370;28;20543;-69
2021/12/01 00:24:44;;;;;;;2.65;0.30;;;11.20;83.60;;;;;;5110826;28;20103;-68
2021/12/01 00:27:10;;;;;;;1.85;0.30;;;11.20;83.80;;;;;;5109721;28;20108;-68
2021/12/01 00:29:36;;;;;;;1.70;0.30;;;11.20;84.00;;;;;;5110071;28;20027;-69
2021/12/01 00:32:03;;;;;;;2.22;0.52;;;11.20;84.30;;;;;;5111522;28;20038;-68
2021/12/01 00:34:29;;;;;;;2.03;0.40;;;11.20;85.10;;;;;;5110232;28;20027;-69
2021/12/01 00:36:55;;;;;;;2.10;0.40;;;11.20;84.70;;;;;;5109898;28;20411;-70
2021/12/01 00:39:20;;;;;;;2.05;0.30;;;11.20;84.70;;;;;;5112617;28;20016;-68
2021/12/01 00:41:48;;;;;;;1.40;0.20;;;11.20;84.70;;;;;;5112450;28;20406;-68
2021/12/01 00:44:13;;;;;;;4.03;0.30;;;11.20;84.70;;;;;;5108567;28;20380;-68
2021/12/01 00:46:55;;;;;;;1.98;0.30;;;11.20;85.20;;;;;;5108733;27;20032;-69
2021/12/01 00:49:21;;;;;;;1.80;0.40;;;11.20;85.10;;;;;;5100251;28;20016;-69
2021/12/01 00:51:47;;;;;;;0.57;0.30;;;11.20;85.20;;;;;;5108785;28;20047;-69
2021/12/01 00:54:13;;;;;;;2.03;0.30;;;11.20;85.40;;;;;;5113376;28;20039;-68
2021/12/01 00:56:39;;;;;;;1.52;0.30;;;11.20;85.90;;;;;;5111158;28;20039;-68
2021/12/01 00:59:05;;;;;;;2.83;0.40;;;11.20;86.20;;;;;;5109247;28;20047;-68
2021/12/01 01:01:31;;;;;;;1.90;0.25;;;11.20;86.50;;;;;;5108939;27;20019;-68
2021/12/01 01:03:57;;;;;;;1.65;0.32;;;11.20;86.30;;;;;;5111118;28;20069;-68
2021/12/01 01:06:23;;;;;;;1.52;0.50;;;11.20;86.80;;;;;;5103951;28;20476;-68
2021/12/01 01:08:49;;;;;;;2.42;0.40;;;11.20;86.70;;;;;;5102184;28;20023;-69
2021/12/01 01:16:44;;;;;;;3.28;0.38;;;11.20;87.00;;;;;;5110820;28;20156;-68
2021/12/01 01:19:12;;;;;;;3.55;0.32;;;11.20;87.60;;;;;;5098240;28;20483;-68
2021/12/01 01:21:46;;;;;;;1.67;0.22;;;11.20;87.50;;;;;;5110740;28;20026;-68
2021/12/01 01:24:12;;;;;;;0.75;0.22;;;11.20;87.80;;;;;;5103072;28;20028;-68
2021/12/01 01:26:38;;;;;;;1.00;0.40;;;11.20;87.80;;;;;;5109272;28;20034;-68
2021/12/01 01:29:05;;;;;;;1.77;0.35;;;11.20;87.70;;;;;;5108293;28;20097;-69
2021/12/01 01:31:32;;;;;;;2.08;0.45;;;11.20;88.20;;;;;;5108923;28;20514;-68
2021/12/01 01:33:58;;;;;;;2.90;0.40;;;11.20;87.80;;;;;;5108720;28;20028;-69
2021/12/01 01:36:24;;;;;;;2.15;0.40;;;11.10;88.50;;;;;;5110054;28;20100;-68
2021/12/01 01:38:50;;;;;;;1.70;0.45;;;11.10;89.40;;;;;;5109839;28;20028;-68
2021/12/01 01:41:16;;;;;;;3.28;0.40;;;11.10;89.30;;;;;;5108439;28;20030;-68
2021/12/01 01:43:44;;;;;;;1.05;0.32;;;11.00;89.80;;;;;;5108985;28;20027;-69
2021/12/01 01:46:11;;;;;;;2.60;0.30;;;11.00;89.70;;;;;;5113051;27;20030;-68
2021/12/01 01:48:53;;;;;;;1.40;0.28;;;11.00;90.00;;;;;;5109587;28;20480;-68
2021/12/01 01:51:24;;;;;;;0.85;0.25;;;11.00;89.50;;;;;;5099554;28;20480;-68
2021/12/01 01:53:53;;;;;;;0.98;0.20;;;11.00;90.10;;;;;;5131028;27;20059;-68
2021/12/01 01:56:19;;;;;;;1.33;0.20;;;11.00;90.40;;;;;;5108575;28;20088;-68
2021/12/01 01:58:45;;;;;;;0.98;0.20;;;11.00;90.10;;;;;;5108802;28;20038;-68
2021/12/01 02:01:42;;;;;;;0.90;0.30;;;11.00;90.50;;;;;;5112393;27;20019;-69
2021/12/01 02:04:08;;;;;;;2.47;0.28;;;11.00;90.50;;;;;;5092560;28;20541;-69
2021/12/01 02:06:35;;;;;;;0.85;0.22;;;11.00;90.30;;;;;;5109781;28;20023;-68
2021/12/01 02:09:01;;;;;;;0.57;0.30;;;11.10;90.40;;;;;;5111140;28;20463;-69
2021/12/01 02:11:28;;;;;;;0.50;0.20;;;11.10;90.50;;;;;;5109969;28;20032;-68
2021/12/01 02:13:55;;;;;;;1.27;0.47;;;11.10;90.70;;;;;;5110223;28;20023;-68
2021/12/01 02:16:21;;;;;;;0.88;0.20;;;11.10;90.60;;;;;;5109979;28;20475;-69
2021/12/01 02:18:47;;;;;;;0.57;0.20;;;11.10;91.30;;;;;;5108198;28;20039;-68
2021/12/01 02:21:14;;;;;;;1.70;0.20;;;11.10;90.70;;;;;;5111974;28;20094;-68
2021/12/01 02:23:46;;;;;;;1.35;0.10;;;11.10;90.70;;;;;;5108540;28;20058;-68
2021/12/01 02:26:13;;;;;;;0.65;0.10;;;11.20;90.80;;;;;;5109929;28;20527;-67
2021/12/01 02:28:41;;;;;;;0.70;0.10;;;11.20;90.70;;;;;;5107514;28;20031;-68
2021/12/01 02:31:07;;;;;;;1.38;0.20;;;11.20;90.80;;;;;;5109656;28;20026;-68
2021/12/01 02:33:33;;;;;;;1.05;0.25;;;11.20;90.50;;;;;;5110078;28;20388;-68
2021/12/01 02:35:59;;;;;;;0.40;0.10;;;11.20;91.00;;;;;;5113002;28;20495;-68
2021/12/01 02:38:25;;;;;;;0.90;0.10;;;11.30;90.90;;;;;;5113892;28;20024;-67
2021/12/01 02:40:52;;;;;;;0.98;0.15;;;11.30;90.70;;;;;;5111239;28;20061;-68
2021/12/01 02:43:17;;;;;;;0.75;0.20;;;11.30;91.30;;;;;;5112551;27;20059;-68
2021/12/01 02:45:44;;;;;;;0.30;0.10;;;11.30;90.90;;;;;;5110624;28;20051;-69
2021/12/01 02:48:12;;;;;;;0.40;0.22;;;11.40;91.40;;;;;;5116055;28;20076;-69
2021/12/01 02:50:40;;;;;;;2.53;0.25;;;11.30;91.10;;;;;;5113591;28;20099;-69
2021/12/01 02:53:06;;;;;;;0.40;0.10;;;11.40;91.30;;;;;;5113677;28;20051;-69
2021/12/01 02:55:35;;;;;;;0.80;0.20;;;11.40;91.20;;;;;;5112047;28;20069;-68
2021/12/01 02:58:01;;;;;;;1.55;0.43;;;11.40;91.20;;;;;;5111305;28;20036;-69
2021/12/01 03:00:27;;;;;;;0.20;0.10;;;11.40;90.90;;;;;;5113867;28;20027;-69
2021/12/01 03:02:56;;;;;;;0.80;0.15;;;11.40;91.10;;;;;;5116780;27;20019;-69
2021/12/01 03:05:23;;;;;;;0.68;0.20;;;11.40;91.10;;;;;;5112684;28;20031;-68
2021/12/01 03:07:49;;;;;;;0.25;0.10;;;11.50;91.50;;;;;;5113086;28;20507;-68
2021/12/01 03:10:15;;;;;;;0.17;0.10;;;11.50;91.50;;;;;;5113583;28;20042;-69
2021/12/01 03:12:43;;;;;;;0.10;0.10;;;11.50;90.90;;;;;;5112848;28;20078;-68
2021/12/01 03:15:11;;;;;;;0.55;0.10;;;11.50;91.20;;;;;;5114817;28;20031;-68
2021/12/01 03:17:38;;;;;;;0.95;0.10;;;11.60;91.20;;;;;;5111871;28;20122;-69
2021/12/01 03:20:08;;;;;;;0.52;0.08;;;11.60;91.30;;;;;;5111803;28;20047;-69
2021/12/01 03:22:33;;;;;;;0.63;0.20;;;11.60;91.40;;;;;;5111796;28;20537;-68
2021/12/01 03:24:59;;;;;;;0.10;0.00;;;11.50;91.10;;;;;;5111744;28;20020;-69
2021/12/01 03:27:25;;;;;;;0.57;0.10;;;11.50;91.20;;;;;;5113920;28;20023;-69
2021/12/01 03:29:51;;;;;;;0.47;0.10;;;11.60;91.20;;;;;;5114357;28;20495;-69
2021/12/01 03:32:19;;;;;;;0.50;0.17;;;11.60;91.90;;;;;;5113103;28;20472;-69
2021/12/01 03:34:45;;;;;;;1.02;0.08;;;11.60;91.50;;;;;;5111524;28;20024;-69
2021/12/01 03:37:11;;;;;;;0.10;0.00;;;11.70;91.30;;;;;;5111264;28;20056;-69
2021/12/01 03:39:37;;;;;;;0.28;0.03;;;11.70;91.90;;;;;;5109786;28;20105;-68
2021/12/01 03:42:04;;;;;;;0.90;0.10;;;11.70;91.40;;;;;;5105221;28;20024;-68
2021/12/01 03:44:30;;;;;;;0.32;0.10;;;11.70;91.50;;;;;;5131012;27;20518;-68
2021/12/01 03:46:56;;;;;;;0.30;0.10;;;11.70;91.40;;;;;;5116944;27;20031;-68
2021/12/01 03:49:21;;;;;;;0.52;0.00;;;11.70;91.40;;;;;;5112778;28;20488;-68
2021/12/01 03:51:47;;;;;;;0.00;0.00;;;11.80;91.30;;;;;;5112843;28;20544;-68
2021/12/01 03:54:13;;;;;;;0.00;0.00;;;11.80;91.40;;;;;;5114826;28;20118;-68
2021/12/01 03:56:39;;;;;;;0.20;0.05;;;11.80;91.30;;;;;;5112316;28;20564;-69
2021/12/01 03:59:05;;;;;;;0.43;0.00;;;11.80;91.50;;;;;;5111321;28;20019;-68
2021/12/01 04:01:32;;;;;;;0.90;0.10;;;11.80;91.40;;;;;;5113948;27;20391;-68
2021/12/01 04:03:58;;;;;;;0.10;0.08;;;11.90;91.20;;;;;;5112515;28;20399;-67
2021/12/01 04:06:25;;;;;;;0.05;0.00;;;11.80;91.30;;;;;;5108821;28;20027;-68
2021/12/01 04:08:51;;;;;;;0.10;0.08;;;11.80;91.80;;;;;;5112216;28;20460;-68
2021/12/01 04:11:17;;;;;;;0.50;0.20;;;11.90;91.50;;;;;;5110792;28;20115;-68
2021/12/01 04:13:42;;;;;;;0.22;0.00;;;11.90;91.70;;;;;;5110106;28;20094;-68
2021/12/01 04:16:08;;;;;;;0.30;0.10;;;11.90;91.40;;;;;;5110467;28;20491;-68
2021/12/01 04:18:34;;;;;;;0.05;0.00;;;11.90;91.50;;;;;;5112208;28;20044;-68
2021/12/01 04:21:00;;;;;;;0.00;0.00;;;12.00;91.70;;;;;;5114428;28;20023;-68
2021/12/01 04:23:25;;;;;;;0.30;0.00;;;12.00;91.40;;;;;;5111942;28;20069;-68
2021/12/01 04:25:52;;;;;;;0.40;0.15;;;12.00;91.60;;;;;;5111769;28;20111;-68
2021/12/01 04:28:18;;;;;;;0.20;0.10;;;12.00;91.60;;;;;;5110364;28;20357;-69
2021/12/01 04:30:44;;;;;;;0.40;0.10;;;12.00;91.50;;;;;;5094674;28;20018;-69
2021/12/01 04:33:10;;;;;;;0.43;0.10;;;12.10;91.40;;;;;;5113964;28;20028;-68
2021/12/01 04:35:36;;;;;;;0.00;0.00;;;12.00;91.30;;;;;;5111778;28;20019;-69
2021/12/01 04:38:03;;;;;;;0.30;0.10;;;12.00;91.30;;;;;;5111463;28;20082;-68
2021/12/01 04:40:29;;;;;;;0.52;0.05;;;12.00;91.40;;;;;;5109958;28;20466;-68
2021/12/01 04:42:54;;;;;;;0.15;0.00;;;12.10;91.50;;;;;;5111417;28;20149;-68
2021/12/01 04:45:22;;;;;;;0.30;0.10;;;12.10;91.70;;;;;;5117040;27;20011;-68
2021/12/01 04:47:51;;;;;;;0.30;0.10;;;12.00;91.60;;;;;;5110169;28;20028;-68
2021/12/01 04:50:20;;;;;;;0.08;0.00;;;12.10;91.60;;;;;;5111554;28;20019;-68
2021/12/01 04:52:47;;;;;;;0.20;0.10;;;12.00;91.50;;;;;;5109889;28;20048;-68
2021/12/01 04:55:13;;;;;;;0.20;0.00;;;12.00;91.30;;;;;;5111740;28;20474;-69
2021/12/01 04:57:45;;;;;;;1.77;0.00;;;11.90;91.20;;;;;;5110658;28;20040;-69
2021/12/01 05:00:15;;;;;;;0.10;0.00;;;12.00;91.30;;;;;;5113065;27;20016;-68
2021/12/01 05:02:41;;;;;;;0.50;0.10;;;12.00;91.30;;;;;;5113375;27;20098;-68
2021/12/01 05:05:07;;;;;;;0.68;0.08;;;12.00;91.30;;;;;;5109678;28;20043;-69
2021/12/01 05:07:33;;;;;;;0.15;0.05;;;12.00;91.20;;;;;;5109835;28;20034;-68
2021/12/01 05:09:58;;;;;;;0.82;0.20;;;12.00;91.10;;;;;;5109692;28;20042;-68
2021/12/01 05:12:24;;;;;;;0.50;0.10;;;11.90;91.20;;;;;;5111996;28;20460;-69
2021/12/01 05:14:51;;;;;;;0.95;0.20;;;11.90;91.10;;;;;;5110664;28;20061;-68
2021/12/01 05:17:19;;;;;;;1.40;0.20;;;11.90;90.90;;;;;;5109389;28;20032;-68
2021/12/01 05:19:44;;;;;;;0.77;0.30;;;11.80;90.90;;;;;;5109550;28;20039;-69
2021/12/01 05:22:10;;;;;;;1.02;0.10;;;11.80;90.80;;;;;;5110260;28;20495;-69
2021/12/01 05:24:36;;;;;;;1.02;0.22;;;11.70;90.90;;;;;;5087531;28;20039;-69
2021/12/01 05:27:02;;;;;;;1.05;0.20;;;11.60;90.70;;;;;;5111358;28;20032;-69
2021/12/01 05:29:28;;;;;;;2.97;0.28;;;11.60;90.80;;;;;;5110942;28;20034;-68
2021/12/01 05:31:55;;;;;;;1.00;0.22;;;11.50;90.80;;;;;;5109041;28;20466;-69
2021/12/01 05:34:21;;;;;;;0.73;0.17;;;11.50;90.80;;;;;;5109038;28;20016;-68
2021/12/01 05:36:47;;;;;;;2.78;0.30;;;11.50;90.70;;;;;;5108925;28;20035;-69
2021/12/01 05:39:13;;;;;;;2.58;0.30;;;11.50;90.90;;;;;;5113169;28;20047;-69
2021/12/01 05:41:39;;;;;;;1.45;0.30;;;11.40;90.70;;;;;;5110074;28;20428;-68
2021/12/01 05:44:04;;;;;;;1.30;0.32;;;11.40;90.60;;;;;;5110514;28;20114;-68
2021/12/01 05:46:30;;;;;;;3.70;0.50;;;11.40;90.50;;;;;;5114642;27;20063;-69
2021/12/01 05:48:56;;;;;;;4.03;0.55;;;11.30;90.50;;;;;;5110686;28;20483;-69
2021/12/01 05:51:22;;;;;;;2.92;0.40;;;11.40;90.50;;;;;;5111920;28;20027;-69
2021/12/01 05:53:49;;;;;;;3.30;0.90;;;11.40;90.40;;;;;;5111124;28;20134;-69
2021/12/01 05:56:15;;;;;;;3.85;0.70;;;11.40;90.20;;;;;;5109807;28;20503;-69
2021/12/01 05:58:41;;;;;;;3.97;0.68;;;11.30;90.20;;;;;;5110327;28;20024;-69
2021/12/01 06:01:07;;;;;;;3.45;0.63;;;11.30;90.00;;;;;;5112039;27;20023;-69
2021/12/01 06:03:33;;;;;;;4.07;1.00;;;11.30;90.00;;;;;;5110806;28;20031;-69
2021/12/01 06:05:59;;;;;;;4.18;0.77;;;11.20;90.00;;;;;;5095097;28;20392;-70
2021/12/01 06:08:25;;;;;;;4.50;1.45;;;11.20;89.90;;;;;;5106834;28;20024;-70
2021/12/01 06:10:51;;;;;;;4.97;1.30;;;11.20;89.90;;;;;;5107392;28;20419;-69
2021/12/01 06:13:18;;;;;;;5.28;1.20;;;11.10;89.90;;;;;;5108814;28;20028;-69
2021/12/01 06:15:53;;;;;;;5.60;1.25;;;11.10;89.70;;;;;;5093576;28;20023;-70
2021/12/01 06:18:19;;;;;;;3.60;0.60;;;11.10;89.80;;;;;;5109270;28;20115;-69
2021/12/01 06:20:45;;;;;;;3.15;0.88;;;11.00;90.00;;;;;;5110677;28;20472;-69
2021/12/01 06:23:12;;;;;;;5.38;0.90;;;11.10;90.40;;;;;;5111196;28;20027;-69
2021/12/01 06:25:37;;;;;;;4.03;0.88;;;11.10;90.00;;;;;;5112437;28;20012;-68
2021/12/01 06:28:03;;;;;;;3.45;0.68;;;11.10;89.90;;;;;;5110184;28;20020;-68
2021/12/01 06:30:32;;;;;;;7.43;3.67;;;11.10;89.80;;;;;;5110529;28;20069;-68
2021/12/01 06:32:58;;;;;;;4.50;1.20;;;11.10;89.80;;;;;;5107073;28;20028;-68
2021/12/01 06:35:24;;;;;;;6.00;1.27;;;11.00;89.70;;;;;;5107596;28;20024;-67
2021/12/01 06:37:56;;;;;;;5.43;0.90;;;11.00;89.70;;;;;;5110312;28;20046;-68
2021/12/01 06:40:24;;;;;;;6.55;1.20;;;11.00;89.70;;;;;;5094300;28;20369;-68
2021/12/01 06:42:50;;;;;;;5.32;1.17;;;11.00;89.50;;;;;;5108567;28;20024;-68
2021/12/01 06:45:19;;;;;;;4.18;1.00;;;10.90;89.60;;;;;;5116543;28;20026;-68
2021/12/01 06:47:45;;;;;;;7.57;1.00;;;10.80;89.60;;;;;;5110298;28;20032;-69
2021/12/01 06:50:12;;;;;;;4.60;1.20;;;10.80;89.70;;;;;;5109798;28;20020;-69
2021/12/01 06:52:38;;;;;;;4.00;1.10;;;10.80;89.70;;;;;;5109093;28;20020;-68
2021/12/01 06:55:06;;;;;;;6.68;1.00;;;10.70;89.60;;;;;;5109417;28;20062;-69
2021/12/01 06:57:32;;;;;;;5.35;1.02;;;10.80;89.80;;;;;;5109880;28;20152;-68
2021/12/01 06:59:58;;;;;;;6.53;1.00;;;10.70;89.80;;;;;;5110079;28;20480;-70
2021/12/01 07:02:25;;;;;;;5.35;1.30;;;10.70;89.60;;;;;;5107709;28;20047;-69
2021/12/01 07:04:50;;;;;;;3.70;0.88;;;10.70;89.70;;;;;;5110902;28;20080;-69
2021/12/01 07:07:16;;;;;;;5.35;1.23;;;10.60;89.70;;;;;;5110275;28;20110;-69
2021/12/01 07:09:44;;;;;;;4.55;0.95;;;10.60;90.20;;;;;;5109722;28;20479;-69
2021/12/01 07:12:11;;;;;;;4.97;1.02;;;10.60;89.90;;;;;;5111853;28;20024;-69
2021/12/01 07:14:36;;;;;;;6.22;1.38;;;10.60;89.80;;;;;;5109278;28;20032;-68
2021/12/01 07:17:03;;;;;;;5.20;1.02;;;10.60;89.70;;;;;;5107888;28;20047;-69
2021/12/01 07:19:28;;;;;;;5.88;1.38;;;10.50;89.80;;;;;;5109519;28;20555;-68
2021/12/01 07:21:54;;;;;;;7.97;1.10;;;10.50;89.90;;;;;;5108627;28;20119;-69
2021/12/01 07:24:20;;;;;;;4.82;1.17;;;10.50;89.70;;;;;;5114773;28;20023;-69
2021/12/01 07:26:46;;;;;;;5.70;1.60;;;10.50;89.40;;;;;;5110373;28;20152;-67
2021/12/01 07:29:12;;;;;;;5.22;1.00;;;10.50;89.70;;;;;;5111125;28;20373;-68
2021/12/01 07:31:38;;;;;;;7.88;1.65;;;10.50;89.80;;;;;;5111209;28;20551;-68
2021/12/01 07:34:04;;;;;;;7.63;1.50;;;10.60;90.20;;;;;;5104604;28;20112;-67
2021/12/01 07:36:29;;;;;;;5.25;1.30;;;10.60;90.10;;;;;;5112681;28;20039;-68
2021/12/01 07:38:57;;;;;;;5.53;1.48;;;10.60;90.10;;;;;;5108504;27;20015;-68
2021/12/01 07:41:22;;;;;;;6.25;1.00;;;10.60;89.30;;;;;;5109568;28;20057;-68
2021/12/01 07:43:48;;;;;;;5.13;1.20;;;10.60;88.80;;;;;;5109640;28;20028;-68
2021/12/01 07:46:14;;;;;;;5.55;1.30;;;10.80;89.90;;;;;;5115284;27;20027;-64
2021/12/01 07:48:40;;;;;;;7.00;1.40;;;10.80;89.80;;;;;;5111072;28;20047;-64
2021/12/01 07:51:06;;;;;;;7.97;1.45;;;10.80;88.60;;;;;;5113820;28;20032;-65
2021/12/01 07:53:32;;;;;;;8.02;1.52;;;10.80;88.30;;;;;;5107248;28;20051;-65
2021/12/01 07:55:58;;;;;;;6.50;1.60;;;10.80;88.60;;;;;;5107341;28;20020;-66
2021/12/01 07:58:23;;;;;;;5.30;1.30;;;10.80;88.80;;;;;;5110992;28;20088;-67
2021/12/01 08:00:49;;;;;;;6.47;1.10;;;10.80;88.80;;;;;;5114831;27;20019;-66
2021/12/01 08:03:15;;;;;;;5.07;1.50;;;10.90;88.60;;;;;;5115006;28;20027;-67
2021/12/01 08:05:41;;;;;;;5.85;1.23;;;10.90;88.30;;;;;;5112243;28;20535;-66
2021/12/01 08:08:07;;;;;;;7.30;1.60;;;10.90;88.60;;;;;;5110265;28;20032;-66
2021/12/01 08:10:33;;;;;;;6.68;1.40;;;11.00;88.50;;;;;;5112312;28;20085;-65
2021/12/01 08:13:00;;;;;;;6.60;1.30;;;11.10;88.20;;;;;;5111162;28;20050;-65
2021/12/01 08:15:27;;;;;;;6.78;1.77;;;11.10;87.80;;;;;;5113001;28;20110;-65
2021/12/01 08:17:53;;;;;;;7.75;1.30;;;11.10;87.70;;;;;;5111926;28;20039;-65
2021/12/01 08:20:19;;;;;;;6.30;1.60;;;11.20;87.80;;;;;;5098120;28;20032;-65
2021/12/01 08:22:45;;;;;;;6.78;1.10;;;11.30;87.80;;;;;;5109130;28;20024;-65
2021/12/01 08:25:12;;;;;;;8.35;1.38;;;11.40;87.80;;;;;;5109510;28;20102;-64
2021/12/01 08:27:38;;;;;;;6.65;1.70;;;11.40;87.30;;;;;;5110620;28;20038;-65
2021/12/01 08:30:05;;;;;;;6.55;1.20;;;11.30;87.00;;;;;;5112369;28;20094;-65
2021/12/01 08:32:30;;;;;;;8.40;1.50;;;11.30;86.80;;;;;;5110355;28;20023;-65
2021/12/01 08:34:56;;;;;;;9.98;1.50;;;11.30;86.70;;;;;;5108661;28;20030;-65
2021/12/01 08:37:22;;;;;;;7.72;1.60;;;11.30;86.80;;;;;;5108618;28;20100;-64
2021/12/01 08:39:49;;;;;;;6.72;1.27;;;11.40;87.70;;;;;;5111323;28;20028;-65
2021/12/01 08:42:16;;;;;;;6.05;1.88;;;11.60;87.60;;;;;;5109923;28;20023;-65
2021/12/01 08:44:45;;;;;;;5.35;1.38;;;11.70;87.00;;;;;;5111261;28;20110;-65
2021/12/01 08:47:12;;;;;;;5.20;1.27;;;11.80;86.70;;;;;;5111805;27;20110;-64
2021/12/01 08:49:38;;;;;;;9.38;1.92;;;12.00;86.80;;;;;;5109255;27;20028;-64
2021/12/01 08:52:04;;;;;;;8.73;1.70;;;12.40;87.10;;;;;;5107350;27;20084;-64
2021/12/01 08:54:30;;;;;;;7.68;1.73;;;12.60;85.80;;;;;;5114923;27;20047;-65
2021/12/01 08:56:57;;;;;;;4.65;1.20;;;12.80;85.00;;;;;;5110399;28;20043;-64
2021/12/01 08:59:23;;;;;;;8.80;1.65;;;12.80;84.80;;;;;;5109419;28;20035;-74
2021/12/01 09:01:49;;;;;;;4.95;1.08;;;13.00;84.30;;;;;;5107981;27;20118;-66
2021/12/01 09:04:15;;;;;;;6.30;1.20;;;13.20;84.00;;;;;;5112710;27;20019;-66
2021/12/01 09:06:41;;;;;;;3.72;1.45;;;13.50;84.20;;;;;;5107993;28;20560;-67
2021/12/01 09:09:07;;;;;;;6.05;1.65;;;13.80;83.10;;;;;;5111191;28;20027;-67
2021/12/01 09:11:33;;;;;;;8.77;1.80;;;14.00;81.70;;;;;;5108673;28;20168;-69
2021/12/01 09:13:58;;;;;;;8.38;1.40;;;14.20;82.60;;;;;;5110001;28;20038;-66
2021/12/01 09:16:25;;;;;;;5.10;1.65;;;14.40;80.70;;;;;;5105189;28;20114;-68
2021/12/01 09:18:51;;;;;;;7.70;1.65;;;14.60;80.70;;;;;;5107698;28;20042;-67
2021/12/01 09:21:18;;;;;;;4.85;1.13;;;14.70;80.10;;;;;;5111356;28;20027;-67
2021/12/01 09:23:44;;;;;;;4.88;1.50;;;14.90;78.40;;;;;;5109219;28;20032;-67
2021/12/01 09:26:10;;;;;;;4.57;1.40;;;15.00;77.90;;;;;;5108335;28;20038;-67
2021/12/01 09:28:36;;;;;;;7.70;1.70;;;15.20;78.80;;;;;;5109214;28;20027;-67
2021/12/01 09:31:02;;;;;;;8.52;1.73;;;15.30;76.70;;;;;;5090633;28;20052;-66
2021/12/01 09:33:29;;;;;;;6.15;1.70;;;15.40;77.90;;;;;;5110845;28;20494;-68
2021/12/01 09:35:56;;;;;;;9.00;1.55;;;15.40;75.80;;;;;;5111468;28;20042;-68
2021/12/01 09:38:22;;;;;;;5.22;1.15;;;15.50;76.00;;;;;;5108848;28;20035;-67
2021/12/01 09:40:54;;;;;;;7.47;1.70;;;15.60;76.30;;;;;;5110728;28;20110;-67
2021/12/01 09:43:25;;;;;;;5.78;1.40;;;15.90;75.50;;;;;;5119001;27;20030;-68
2021/12/01 09:45:51;;;;;;;6.82;1.52;;;16.20;76.20;;;;;;5108043;28;20026;-67
2021/12/01 09:48:18;;;;;;;7.32;1.67;;;16.50;73.40;;;;;;5111755;28;20046;-65
2021/12/01 09:50:44;;;;;;;5.40;1.40;;;16.10;69.90;;;;;;5109948;28;20020;-63
2021/12/01 09:53:09;;;;;;;6.72;1.40;;;15.70;72.20;;;;;;5108071;28;20035;-64
2021/12/01 09:55:36;;;;;;;5.32;1.35;;;15.80;74.60;;;;;;5107398;28;20032;-64
2021/12/01 09:58:10;;;;;;;6.35;1.40;;;16.00;72.10;;;;;;5107588;28;20503;-63
2021/12/01 10:00:39;;;;;;;7.28;1.30;;;16.20;72.80;;;;;;5110124;27;20109;-64
2021/12/01 10:03:05;;;;;;;7.47;1.48;;;16.30;70.10;;;;;;5112666;27;20024;-64
2021/12/01 10:06:06;;;;;;;7.20;1.30;;;16.40;70.90;;;;;;5108025;28;20020;-65
2021/12/01 10:08:37;;;;;;;5.03;1.20;;;16.50;72.80;;;;;;5106197;28;20027;-64
2021/12/01 10:11:21;;;;;;;7.88;1.40;;;16.60;68.40;;;;;;5107368;28;20019;-64
2021/12/01 10:13:54;;;;;;;7.75;1.40;;;16.70;70.70;;;;;;5107333;28;20031;-64
2021/12/01 10:16:21;;;;;;;5.93;1.40;;;16.90;71.10;;;;;;5107384;28;20030;-64
2021/12/01 10:18:50;;;;;;;6.35;1.60;;;17.00;69.00;;;;;;5107304;28;20020;-64
2021/12/01 10:21:20;;;;;;;6.38;1.58;;;17.30;70.00;;;;;;5111443;28;20028;-62
2021/12/01 10:23:55;;;;;;;6.95;1.60;;;17.40;68.60;;;;;;5108198;28;20079;-63
2021/12/01 10:26:23;;;;;;;6.43;1.67;;;17.00;66.60;;;;;;5107845;28;20060;-63
2021/12/01 10:29:10;;;;;;;7.63;1.40;;;16.50;66.00;;;;;;5109256;28;20556;-62
2021/12/01 10:31:43;;;;;;;8.00;2.00;;;16.00;67.70;;;;;;5097461;28;20032;-62
2021/12/01 10:34:31;;;;;;;4.97;1.48;;;15.30;68.50;;;;;;5107285;28;20032;-62
2021/12/01 10:37:12;;;;;;;6.07;0.90;;;14.50;69.20;;;;;;5093218;28;20066;-63
2021/12/01 10:39:39;;;;;;;4.13;0.88;;;14.00;71.00;;;;;;5107874;28;20072;-63
2021/12/01 10:42:09;;;;;;;5.00;1.00;;;13.60;72.20;;;;;;5109408;28;20058;-63
2021/12/01 10:44:35;;;;;;;6.75;1.20;;;13.40;72.70;;;;;;5106252;28;20051;-64
2021/12/01 10:47:12;;;;;;;4.28;1.00;;;13.30;73.00;;;;;;5107243;28;20024;-64
2021/12/01 10:49:43;;;;;;;4.18;0.95;;;13.10;74.10;;;;;;5106264;28;20027;-64
2021/12/01 10:52:26;;;;;;;4.47;1.08;;;13.00;74.20;;;;;;5109654;28;20086;-65
2021/12/01 10:55:12;;;;;;;7.13;1.25;;;12.90;74.60;;;;;;5097888;28;20090;-65
2021/12/01 10:57:43;;;;;;;7.20;1.20;;;12.70;74.90;;;;;;5110960;28;20035;-65
2021/12/01 11:00:27;;;;;;;5.35;1.42;;;12.70;75.40;;;;;;5114773;27;20042;-64
2021/12/01 11:03:03;;;;;;;4.95;1.20;;;13.30;78.70;;;;;;5116684;27;20027;-65
2021/12/01 11:05:38;;;;;;;5.88;1.23;;;14.30;78.00;;;;;;5105396;27;20529;-67
2021/12/01 11:08:26;;;;;;;7.25;1.40;;;15.10;75.90;;;;;;5103601;28;20480;-67
2021/12/01 11:11:03;;;;;;;6.93;1.70;;;15.90;75.10;;;;;;5113016;28;20028;-71
2021/12/01 11:13:29;;;;;;;7.50;1.42;;;16.40;71.00;;;;;;5108179;28;20034;-68
2021/12/01 11:16:00;;;;;;;7.95;1.67;;;16.80;70.20;;;;;;5109953;28;20052;-66
2021/12/01 11:18:28;;;;;;;7.60;1.75;;;17.20;69.40;;;;;;5108256;28;20068;-67
2021/12/01 11:20:56;;;;;;;6.97;1.48;;;17.40;67.80;;;;;;5110253;28;20032;-67
2021/12/01 11:23:30;;;;;;;6.75;1.42;;;17.70;66.10;;;;;;5109273;28;20103;-66
2021/12/01 11:26:03;;;;;;;8.63;1.38;;;18.00;66.90;;;;;;5110376;28;20035;-67
2021/12/01 11:28:32;;;;;;;7.55;1.63;;;18.40;63.90;;;;;;5109215;28;20024;-67
2021/12/01 11:31:02;;;;;;;4.28;1.40;;;18.60;64.60;;;;;;5109784;28;20024;-68
2021/12/01 11:33:30;;;;;;;5.45;1.30;;;18.50;62.00;;;;;;5109442;28;20019;-66
2021/12/01 11:36:08;;;;;;;6.45;1.55;;;18.80;62.00;;;;;;5110999;28;20488;-66
2021/12/01 11:38:35;;;;;;;5.53;1.23;;;18.40;59.80;;;;;;5110035;28;20060;-67
2021/12/01 11:41:02;;;;;;;5.00;1.80;;;18.10;60.10;;;;;;5110635;28;20541;-66
2021/12/01 11:43:29;;;;;;;4.72;1.20;;;18.20;60.90;;;;;;5108389;28;20603;-67
2021/12/01 11:45:58;;;;;;;4.32;1.17;;;18.00;60.60;;;;;;5110500;28;20030;-67
2021/12/01 11:48:29;;;;;;;4.88;1.30;;;17.60;60.30;;;;;;5110202;28;20030;-68
2021/12/01 11:51:03;;;;;;;4.97;1.35;;;17.50;61.60;;;;;;5127024;27;20496;-70
2021/12/01 11:53:37;;;;;;;;;;;17.80;62.40;;;;;;5110939;28;20048;-70
2021/12/01 11:56:12;;;;;;;5.30;1.58;;;18.20;63.10;;;;;;5109265;28;20027;-70
2021/12/01 11:58:56;;;;;;;5.95;1.40;;;18.50;60.70;;;;;;5110297;28;20376;-70
2021/12/01 12:01:22;;;;;;;5.18;1.20;;;19.00;61.60;;;;;;5110082;27;20024;-69
2021/12/01 12:03:53;;;;;;;4.13;1.52;;;19.40;58.90;;;;;;5108117;28;20518;-70
2021/12/01 12:06:25;;;;;;;5.82;1.60;;;19.60;60.20;;;;;;5109878;28;20046;-68
2021/12/01 12:08:54;;;;;;;3.83;1.02;;;20.10;59.70;;;;;;5110489;28;20027;-66
2021/12/01 12:11:56;;;;;;;7.20;1.40;;;20.00;55.60;;;;;;5111178;28;20111;-67
2021/12/01 12:14:32;;;;;;;4.47;1.00;;;18.90;56.60;;;;;;5112850;28;20047;-67
2021/12/01 12:17:28;;;;;;;2.80;0.90;;;18.20;56.10;;;;;;5110512;28;20118;-67
2021/12/01 12:20:20;;;;;;;4.20;0.80;;;17.00;57.50;;;;;;5111150;28;20535;-67
2021/12/01 12:22:46;;;;;;;3.00;1.05;;;16.20;60.00;;;;;;5110698;28;20102;-66
2021/12/01 12:25:43;;;;;;;5.72;0.88;;;16.10;62.20;;;;;;5112962;28;20027;-65
2021/12/01 12:28:36;;;;;;;3.63;0.98;;;17.10;62.90;;;;;;5097510;28;20031;-66
2021/12/01 12:31:19;;;;;;;2.33;0.80;;;16.50;60.60;;;;;;5093096;28;20039;-65
2021/12/01 12:34:01;;;;;;;5.13;1.33;;;16.00;61.00;;;;;;5094957;28;20027;-66
2021/12/01 12:36:48;;;;;;;5.35;1.20;;;15.30;62.40;;;;;;5110583;28;20050;-66
2021/12/01 12:39:17;;;;;;;4.90;1.13;;;15.00;64.20;;;;;;5104782;28;20032;-66
2021/12/01 12:41:55;;;;;;;6.78;1.40;;;14.60;65.00;;;;;;5112436;28;20388;-66
2021/12/01 12:44:36;;;;;;;8.52;1.58;;;14.10;66.20;;;;;;5110238;28;20064;-66
2021/12/01 12:47:07;;;;;;;6.68;1.48;;;13.80;67.60;;;;;;5110589;28;20016;-65
2021/12/01 12:49:44;;;;;;;7.25;1.30;;;13.40;68.40;;;;;;5110589;28;20044;-65
2021/12/01 12:52:25;;;;;;;4.30;0.93;;;13.20;69.80;;;;;;5110438;28;20019;-65
2021/12/01 12:54:58;;;;;;;3.80;0.93;;;13.40;70.80;;;;;;5095054;28;20535;-65
2021/12/01 12:57:26;;;;;;;4.10;0.90;;;13.50;70.10;;;;;;5112529;28;20143;-65
2021/12/01 13:00:21;;;;;;;3.38;0.90;;;13.40;69.60;;;;;;5111680;28;20097;-66